Time;durP1;ratioP1;P1;durP2;ratioP2;P2;SDS_P1;SDS_P2;PMS_P1;PMS_P2;Temp;Humidity;BMP_temperature;BMP_pressure;BME280_temperature;BME280_humidity;BME280_pressure;Samples;Min_cycle;Max_cycle;Signal;HPM_P1;HPM_P2
2022/11/09 00:01:48;;;;;;;;;;;6.10;99.90;;;;;;4990067;28;19925;-73
2022/11/09 00:04:20;;;;;;;;;;;6.10;99.90;;;;;;4974922;28;20474;-74
2022/11/09 00:06:51;;;;;;;;;;;6.10;99.90;;;;;;5008649;28;19931;-74
2022/11/09 00:09:23;;;;;;;;;;;6.20;99.90;;;;;;4990925;28;19929;-76
2022/11/09 00:11:54;;;;;;;;;;;6.20;99.90;;;;;;4990877;28;19930;-74
2022/11/09 00:14:26;;;;;;;;;;;6.20;99.90;;;;;;4985995;28;19979;-74
2022/11/09 00:16:57;;;;;;;;;;;6.20;99.90;;;;;;4991120;28;19973;-74
2022/11/09 00:19:24;;;;;;;;;;;6.20;99.90;;;;;;4991397;28;19933;-74
2022/11/09 00:21:51;;;;;;;;;;;6.20;99.90;;;;;;4990933;28;19984;-73
2022/11/09 00:24:22;;;;;;;;;;;6.20;99.90;;;;;;4988303;28;20407;-73
2022/11/09 00:26:54;;;;;;;;;;;6.10;99.90;;;;;;4988497;28;19941;-74
2022/11/09 00:29:27;;;;;;;;;;;6.20;99.90;;;;;;5007855;28;19926;-75
2022/11/09 00:31:59;;;;;;;;;;;6.20;99.90;;;;;;4976131;28;19925;-73
2022/11/09 00:34:30;;;;;;;;;;;6.20;99.90;;;;;;4991682;28;19936;-75
2022/11/09 00:37:04;;;;;;;;;;;6.20;99.90;;;;;;4994419;28;19931;-74
2022/11/09 00:39:37;;;;;;;;;;;6.20;99.90;;;;;;5011810;28;20007;-73
2022/11/09 00:42:08;;;;;;;;;;;6.10;99.90;;;;;;4977401;28;19934;-73
2022/11/09 00:44:40;;;;;;;;;;;6.10;99.90;;;;;;4976654;28;19937;-73
2022/11/09 00:47:08;;;;;;;;;;;6.20;99.90;;;;;;4976248;28;19933;-73
2022/11/09 00:49:40;;;;;;;;;;;6.20;99.90;;;;;;4977822;28;20403;-73
2022/11/09 00:52:11;;;;;;;;;;;6.20;99.90;;;;;;4977552;28;20308;-74
2022/11/09 00:54:43;;;;;;;;;;;6.20;99.90;;;;;;4978370;28;19952;-72
2022/11/09 00:57:15;;;;;;;;;;;6.20;99.90;;;;;;4994607;28;20363;-73
2022/11/09 00:59:44;;;;;;;;;;;6.20;99.90;;;;;;4993486;28;19930;-74
2022/11/09 01:02:16;;;;;;;;;;;6.20;99.90;;;;;;4978143;28;19929;-73
2022/11/09 01:04:48;;;;;;;;;;;6.30;99.90;;;;;;4986894;28;19929;-74
2022/11/09 01:07:14;;;;;;;;;;;6.20;99.90;;;;;;4992233;28;20304;-73
2022/11/09 01:09:46;;;;;;;;;;;6.30;99.90;;;;;;4977824;28;19936;-74
2022/11/09 01:12:18;;;;;;;;;;;6.30;99.90;;;;;;4991159;28;19925;-73
2022/11/09 01:14:50;;;;;;;;;;;6.30;99.90;;;;;;4994741;28;19926;-73
2022/11/09 01:17:21;;;;;;;;;;;6.30;99.90;;;;;;4977867;28;19991;-73
2022/11/09 01:19:54;;;;;;;;;;;6.40;99.90;;;;;;4993872;28;19972;-74
2022/11/09 01:22:25;;;;;;;;;;;6.40;99.90;;;;;;4977802;28;19930;-73
2022/11/09 01:24:57;;;;;;;;;;;6.40;99.90;;;;;;4993567;28;19951;-76
2022/11/09 01:27:28;;;;;;;;;;;6.40;99.90;;;;;;4993054;28;19925;-73
2022/11/09 01:30:00;;;;;;;;;;;6.30;99.90;;;;;;4993543;28;20347;-74
2022/11/09 01:32:32;;;;;;;;;;;6.40;99.90;;;;;;4974449;28;19937;-72
2022/11/09 01:35:04;;;;;;;;;;;6.40;99.90;;;;;;4977092;28;19940;-74
2022/11/09 01:37:36;;;;;;;;;;;6.40;99.90;;;;;;4991886;28;19929;-74
2022/11/09 01:40:09;;;;;;;;;;;6.40;99.90;;;;;;4990388;28;19925;-74
2022/11/09 01:42:40;;;;;;;;;;;6.40;99.90;;;;;;4992341;28;20297;-73
2022/11/09 01:45:14;;;;;;;;;;;6.40;99.90;;;;;;5004116;28;20404;-74
2022/11/09 01:47:48;;;;;;;;;;;6.30;99.90;;;;;;4992538;28;19930;-74
2022/11/09 01:50:26;;;;;;;;;;;6.30;99.90;;;;;;4975583;28;20339;-74
2022/11/09 01:53:00;;;;;;;;;;;6.30;99.90;;;;;;4993181;28;19972;-75
2022/11/09 01:55:26;;;;;;;;;;;6.30;99.90;;;;;;4998067;28;20351;-74
2022/11/09 01:58:09;;;;;;;;;;;6.20;99.90;;;;;;4983961;28;19940;-75
2022/11/09 02:00:37;;;;;;;;;;;6.20;99.90;;;;;;5008765;28;19935;-75
2022/11/09 02:03:12;;;;;;;;;;;6.20;99.90;;;;;;4976080;28;20292;-75
2022/11/09 02:05:41;;;;;;;;;;;6.10;99.90;;;;;;4990731;28;19934;-75
2022/11/09 02:08:14;;;;;;;;;;;6.10;99.90;;;;;;4975726;28;20024;-75
2022/11/09 02:10:53;;;;;;;;;;;6.10;99.90;;;;;;4991598;28;19933;-76
2022/11/09 02:13:26;;;;;;;;;;;6.00;99.90;;;;;;5001111;28;19929;-75
2022/11/09 02:16:02;;;;;;;;;;;6.10;99.90;;;;;;4991584;28;20380;-75
2022/11/09 02:18:34;;;;;;;;;;;6.00;99.90;;;;;;4990927;28;19930;-75
2022/11/09 02:21:01;;;;;;;;;;;6.00;99.90;;;;;;4992308;28;19979;-75
2022/11/09 02:23:33;;;;;;;;;;;6.00;99.90;;;;;;4988988;28;19930;-75
2022/11/09 02:26:07;;;;;;;;;;;6.00;99.90;;;;;;4974662;28;20391;-74
2022/11/09 02:28:39;;;;;;;;;;;6.00;99.90;;;;;;4976573;28;19949;-74
2022/11/09 02:31:13;;;;;;;;;;;6.00;99.90;;;;;;4990602;28;20392;-75
2022/11/09 02:33:49;;;;;;;;;;;5.90;99.90;;;;;;4987262;28;19941;-75
2022/11/09 02:36:22;;;;;;;;;;;5.90;99.90;;;;;;4987292;28;19930;-75
2022/11/09 02:38:55;;;;;;;;;;;5.90;99.90;;;;;;4973033;28;19933;-75
2022/11/09 02:41:22;;;;;;;;;;;5.90;99.90;;;;;;4991826;28;20312;-74
2022/11/09 02:43:55;;;;;;;;;;;5.90;99.90;;;;;;4974868;28;19929;-74
2022/11/09 02:46:31;;;;;;;;;;;6.00;99.90;;;;;;4990181;28;19933;-74
2022/11/09 02:49:03;;;;;;;;;;;6.00;99.90;;;;;;4991144;28;19982;-75
2022/11/09 02:51:35;;;;;;;;;;;6.00;99.90;;;;;;4991258;28;19934;-75
2022/11/09 02:54:06;;;;;;;;;;;6.00;99.90;;;;;;4991235;28;19964;-75
2022/11/09 02:56:39;;;;;;;;;;;6.00;99.90;;;;;;4990184;28;19929;-75
2022/11/09 02:59:07;;;;;;;;;;;6.00;99.90;;;;;;4999734;28;20336;-75
2022/11/09 03:01:39;;;;;;;;;;;6.00;99.90;;;;;;4984893;28;19925;-75
2022/11/09 03:04:10;;;;;;;;;;;6.00;99.90;;;;;;4992082;28;19933;-75
2022/11/09 03:06:42;;;;;;;;;;;6.00;99.90;;;;;;4974995;28;19930;-75
2022/11/09 03:09:16;;;;;;;;;;;6.00;99.90;;;;;;4990939;28;20020;-75
2022/11/09 03:11:43;;;;;;;;;;;6.00;99.90;;;;;;4990602;28;19925;-75
2022/11/09 03:14:15;;;;;;;;;;;5.90;99.90;;;;;;4991039;28;19929;-75
2022/11/09 03:16:51;;;;;;;;;;;6.00;99.90;;;;;;4989042;28;19930;-75
2022/11/09 03:19:23;;;;;;;;;;;5.90;99.90;;;;;;4975994;28;20482;-74
2022/11/09 03:21:55;;;;;;;;;;;5.90;99.90;;;;;;5007714;28;19932;-74
2022/11/09 03:24:26;;;;;;;;;;;5.90;99.90;;;;;;4990274;28;20052;-74
2022/11/09 03:26:58;;;;;;;;;;;5.90;99.90;;;;;;4975801;28;20440;-74
2022/11/09 03:29:30;;;;;;;;;;;5.80;99.90;;;;;;4990314;28;20024;-74
2022/11/09 03:32:02;;;;;;;;;;;5.90;99.90;;;;;;4975385;28;19988;-75
2022/11/09 03:34:34;;;;;;;;;;;5.90;99.90;;;;;;4973479;28;19930;-74
2022/11/09 03:37:06;;;;;;;;;;;5.90;99.90;;;;;;4975609;28;19936;-75
2022/11/09 03:39:37;;;;;;;;;;;5.90;99.90;;;;;;4991041;28;20384;-74
2022/11/09 03:42:09;;;;;;;;;;;5.90;99.90;;;;;;4990516;28;20411;-73
2022/11/09 03:44:41;;;;;;;;;;;5.80;99.90;;;;;;4990935;28;20332;-73
2022/11/09 03:47:12;;;;;;;;;;;5.90;99.90;;;;;;4984992;28;20273;-74
2022/11/09 03:49:44;;;;;;;;;;;5.80;99.90;;;;;;4974092;28;19925;-73
2022/11/09 03:52:10;;;;;;;;;;;5.80;99.90;;;;;;4990806;28;19926;-73
2022/11/09 03:54:42;;;;;;;;;;;5.80;99.90;;;;;;4991201;28;19972;-74
2022/11/09 03:57:13;;;;;;;;;;;5.80;99.90;;;;;;5008711;28;19952;-73
2022/11/09 03:59:45;;;;;;;;;;;5.80;99.90;;;;;;4991376;28;20015;-73
2022/11/09 04:02:11;;;;;;;;;;;5.70;99.90;;;;;;4988928;28;19956;-75
2022/11/09 04:04:43;;;;;;;;;;;5.70;99.90;;;;;;5007444;28;19926;-73
2022/11/09 04:07:15;;;;;;;;;;;5.60;99.90;;;;;;4983072;28;19926;-73
2022/11/09 04:09:46;;;;;;;;;;;5.60;99.90;;;;;;4977987;28;19937;-74
2022/11/09 04:12:13;;;;;;;;;;;5.50;99.90;;;;;;4985092;28;20367;-74
2022/11/09 04:14:44;;;;;;;;;;;5.50;99.90;;;;;;4993910;28;19957;-73
2022/11/09 04:17:16;;;;;;;;;;;5.50;99.90;;;;;;4996825;28;19925;-74
2022/11/09 04:19:48;;;;;;;;;;;5.50;99.90;;;;;;5012442;28;19933;-76
2022/11/09 04:22:19;;;;;;;;;;;5.50;99.90;;;;;;4979535;28;19925;-78
2022/11/09 04:24:51;;;;;;;;;;;5.50;99.90;;;;;;5013485;28;19929;-73
2022/11/09 04:27:22;;;;;;;;;;;5.50;99.90;;;;;;4985501;28;19925;-72
2022/11/09 04:29:49;;;;;;;;;;;5.60;99.90;;;;;;4991941;28;19933;-74
2022/11/09 04:32:15;;;;;;;;;;;5.90;99.90;;;;;;5012440;28;19979;-74
2022/11/09 04:34:47;;;;;;;;;;;5.90;99.90;;;;;;5003270;28;19980;-73
2022/11/09 04:37:14;;;;;;;;;;;5.90;99.90;;;;;;5013176;28;19926;-74
2022/11/09 04:39:40;;;;;;;;;;;5.80;99.90;;;;;;4996145;28;19929;-73
2022/11/09 04:42:12;;;;;;;;;;;5.80;99.90;;;;;;5013485;28;19999;-74
2022/11/09 04:44:38;;;;;;;;;;;5.70;99.90;;;;;;5013407;28;19929;-72
2022/11/09 04:47:10;;;;;;;;;;;5.70;99.90;;;;;;4995013;28;19925;-75
2022/11/09 04:49:41;;;;;;;;;;;5.60;99.90;;;;;;5012301;28;19932;-73
2022/11/09 04:52:13;;;;;;;;;;;5.50;99.90;;;;;;4995290;28;19984;-75
2022/11/09 04:54:44;;;;;;;;;;;5.50;99.90;;;;;;4995281;28;19988;-72
2022/11/09 04:57:16;;;;;;;;;;;5.40;99.90;;;;;;4983295;28;19925;-77
2022/11/09 04:59:48;;;;;;;;;;;5.40;99.90;;;;;;5012494;28;19925;-74
2022/11/09 05:02:19;;;;;;;;;;;5.40;99.90;;;;;;4992553;28;19930;-74
2022/11/09 05:04:46;;;;;;;;;;;5.40;99.90;;;;;;4976912;28;20668;-74
2022/11/09 05:07:17;;;;;;;;;;;5.40;99.90;;;;;;4979714;28;19929;-73
2022/11/09 05:09:49;;;;;;;;;;;5.40;99.90;;;;;;5011850;28;19979;-74
2022/11/09 05:12:15;;;;;;;;;;;5.30;99.90;;;;;;5010025;28;19925;-74
2022/11/09 05:14:47;;;;;;;;;;;5.30;99.90;;;;;;5012316;28;20028;-74
2022/11/09 05:17:13;;;;;;;;;;;5.30;99.90;;;;;;4994719;28;19940;-74
2022/11/09 05:19:40;;;;;;;;;;;5.30;99.90;;;;;;4989956;28;20439;-74
2022/11/09 05:24:57;;;;;;;;;;;5.30;99.90;;;;;;5007939;28;19926;-77
2022/11/09 05:27:24;;;;;;;;;;;5.30;99.90;;;;;;4992319;28;19929;-75
2022/11/09 05:29:55;;;;;;;;;;;5.20;99.90;;;;;;4993121;28;19975;-74
2022/11/09 05:32:22;;;;;;;;;;;5.30;99.90;;;;;;4988923;28;19925;-74
2022/11/09 05:34:53;;;;;;;;;;;5.30;99.90;;;;;;4977178;28;19930;-77
2022/11/09 05:37:25;;;;;;;;;;;5.60;99.90;;;;;;5008898;28;19925;-74
2022/11/09 05:39:56;;;;;;;;;;;5.80;99.90;;;;;;4992857;28;19926;-74
2022/11/09 05:42:28;;;;;;;;;;;5.60;99.90;;;;;;4975505;28;19937;-76
2022/11/09 05:45:00;;;;;;;;;;;5.50;99.90;;;;;;5010912;28;19927;-74
2022/11/09 05:47:26;;;;;;;;;;;5.40;99.90;;;;;;4980168;28;19963;-73
2022/11/09 05:49:53;;;;;;;;;;;5.30;99.90;;;;;;4989825;28;19925;-73
2022/11/09 05:52:19;;;;;;;;;;;5.30;99.90;;;;;;4974954;28;19926;-73
2022/11/09 05:54:51;;;;;;;;;;;5.20;99.90;;;;;;4991479;28;19925;-73
2022/11/09 05:57:22;;;;;;;;;;;5.20;99.90;;;;;;4991311;28;19930;-73
2022/11/09 05:59:54;;;;;;;;;;;5.20;99.90;;;;;;4990020;28;19972;-71
2022/11/09 06:02:21;;;;;;;;;;;5.20;99.90;;;;;;5009139;28;19957;-71
2022/11/09 06:04:52;;;;;;;;;;;5.30;99.90;;;;;;4990974;28;19972;-73
2022/11/09 06:07:24;;;;;;;;;;;5.30;99.90;;;;;;4988640;28;19925;-73
2022/11/09 06:09:51;;;;;;;;;;;5.30;99.90;;;;;;5010379;28;19956;-75
2022/11/09 06:12:17;;;;;;;;;;;5.40;99.90;;;;;;4981104;28;19925;-74
2022/11/09 06:14:49;;;;;;;;;;;5.40;99.90;;;;;;5011681;28;20341;-74
2022/11/09 06:17:20;;;;;;;;;;;5.50;99.90;;;;;;4991953;28;19980;-73
2022/11/09 06:19:52;;;;;;;;;;;5.50;99.90;;;;;;4978243;28;20369;-75
2022/11/09 06:22:23;;;;;;;;;;;5.50;99.90;;;;;;4986555;28;20455;-73
2022/11/09 06:24:55;;;;;;;;;;;5.60;99.90;;;;;;4985408;28;19929;-74
2022/11/09 06:27:27;;;;;;;;;;;5.60;99.90;;;;;;4985171;28;19926;-72
2022/11/09 06:29:53;;;;;;;;;;;5.70;99.90;;;;;;5010850;28;19929;-74
2022/11/09 06:32:25;;;;;;;;;;;5.80;99.90;;;;;;4990742;28;19998;-74
2022/11/09 06:34:56;;;;;;;;;;;5.90;99.90;;;;;;4989060;28;19930;-74
2022/11/09 06:37:28;;;;;;;;;;;6.00;99.90;;;;;;5010776;28;20277;-74
2022/11/09 06:39:59;;;;;;;;;;;6.00;99.90;;;;;;4975643;28;19945;-74
2022/11/09 06:42:26;;;;;;;;;;;6.00;99.90;;;;;;5008701;28;19972;-75
2022/11/09 06:44:57;;;;;;;;;;;6.10;99.90;;;;;;4976301;28;19926;-74
2022/11/09 06:47:29;;;;;;;;;;;6.10;99.90;;;;;;4977577;28;20339;-74
2022/11/09 06:50:01;;;;;;;;;;;6.10;99.90;;;;;;4993119;28;19945;-73
2022/11/09 06:52:32;;;;;;;;;;;6.10;99.90;;;;;;4993057;28;20404;-75
2022/11/09 06:54:59;;;;;;;;;;;6.10;99.90;;;;;;4982524;28;19933;-73
2022/11/09 06:57:28;;;;;;;;;;;6.20;99.90;;;;;;4976548;28;19932;-73
2022/11/09 06:59:59;;;;;;;;;;;6.20;99.90;;;;;;4979429;28;20320;-73
2022/11/09 07:02:26;;;;;;;;;;;6.20;99.90;;;;;;4992749;28;19925;-73
2022/11/09 07:04:58;;;;;;;;;;;6.20;99.90;;;;;;4992099;28;20404;-74
2022/11/09 07:07:30;;;;;;;;;;;6.30;99.90;;;;;;4993319;28;19976;-72
2022/11/09 07:10:02;;;;;;;;;;;6.30;99.90;;;;;;4986714;28;19930;-73
2022/11/09 07:12:28;;;;;;;;;;;6.30;99.90;;;;;;5009830;28;20343;-73
2022/11/09 07:15:00;;;;;;;;;;;6.40;99.90;;;;;;4991632;28;19995;-73
2022/11/09 07:17:32;;;;;;;;;;;6.40;99.90;;;;;;5007903;28;20277;-72
2022/11/09 07:20:05;;;;;;;;;;;6.40;99.90;;;;;;4984714;28;19933;-72
2022/11/09 07:22:40;;;;;;;;;;;6.40;99.90;;;;;;5009857;28;19975;-72
2022/11/09 07:25:08;;;;;;;;;;;6.50;99.90;;;;;;4990970;28;19980;-74
2022/11/09 07:27:35;;;;;;;;;;;6.50;99.90;;;;;;4974783;28;20314;-75
2022/11/09 07:30:07;;;;;;;;;;;6.60;99.90;;;;;;4989364;28;19933;-73
2022/11/09 07:32:39;;;;;;;;;;;6.60;99.90;;;;;;4986522;28;19929;-72
2022/11/09 07:35:10;;;;;;;;;;;6.70;99.90;;;;;;4992074;28;19925;-72
2022/11/09 07:37:42;;;;;;;;;;;6.70;99.90;;;;;;4991899;28;20453;-71
2022/11/09 07:40:09;;;;;;;;;;;6.80;99.90;;;;;;4991791;28;19937;-72
2022/11/09 07:42:40;;;;;;;;;;;6.80;99.90;;;;;;5008985;28;20311;-73
2022/11/09 07:45:07;;;;;;;;;;;6.90;99.90;;;;;;4989846;28;19972;-72
2022/11/09 07:47:34;;;;;;;;;;;6.90;99.90;;;;;;4976628;28;20388;-72
2022/11/09 07:50:05;;;;;;;;;;;6.90;99.90;;;;;;4976749;28;19925;-73
2022/11/09 07:52:37;;;;;;;;;;;7.00;99.90;;;;;;4989846;28;19971;-73
2022/11/09 07:55:08;;;;;;;;;;;7.00;99.90;;;;;;4976161;28;19929;-73
2022/11/09 07:57:40;;;;;;;;;;;7.10;99.90;;;;;;4990728;28;19964;-72
2022/11/09 08:00:12;;;;;;;;;;;7.10;99.90;;;;;;5008015;28;19926;-74
2022/11/09 08:02:38;;;;;;;;;;;7.20;99.90;;;;;;4986973;28;19930;-71
2022/11/09 08:05:05;;;;;;;;;;;7.20;99.90;;;;;;4973985;28;20496;-73
2022/11/09 08:07:37;;;;;;;;;;;7.20;99.90;;;;;;5008342;28;19938;-73
2022/11/09 08:10:08;;;;;;;;;;;7.30;99.90;;;;;;4982948;28;19926;-72
2022/11/09 08:12:40;;;;;;;;;;;7.30;99.90;;;;;;4990355;28;20483;-73
2022/11/09 08:15:12;;;;;;;;;;;7.40;99.90;;;;;;4992885;28;19958;-72
2022/11/09 08:17:38;;;;;;;;;;;7.50;99.90;;;;;;4988364;28;20351;-74
2022/11/09 08:20:10;;;;;;;;;;;7.60;99.90;;;;;;4992957;28;19980;-73
2022/11/09 08:22:42;;;;;;;;;;;7.60;99.90;;;;;;4985049;28;19934;-74
2022/11/09 08:25:14;;;;;;;;;;;7.60;99.90;;;;;;4983281;28;19925;-73
2022/11/09 08:27:46;;;;;;;;;;;7.70;99.90;;;;;;5007393;28;20011;-74
2022/11/09 08:30:19;;;;;;;;;;;7.70;99.90;;;;;;4975165;28;19968;-74
2022/11/09 08:32:51;;;;;;;;;;;7.80;99.90;;;;;;4990916;28;19984;-74
2022/11/09 08:35:23;;;;;;;;;;;7.90;99.90;;;;;;4990316;28;19932;-73
2022/11/09 08:37:54;;;;;;;;;;;8.00;99.90;;;;;;4988708;28;20274;-74
2022/11/09 08:40:26;;;;;;;;;;;8.10;99.90;;;;;;4991950;28;19926;-73
2022/11/09 08:43:02;;;;;;;;;;;8.10;99.90;;;;;;4987006;28;19926;-73
2022/11/09 08:45:35;;;;;;;;;;;8.20;99.90;;;;;;4983605;28;20004;-73
2022/11/09 08:48:07;;;;;;;;;;;8.30;99.90;;;;;;4973590;28;19983;-74
2022/11/09 08:50:38;;;;;;;;;;;8.30;99.90;;;;;;4989534;28;19983;-73
2022/11/09 08:53:10;;;;;;;;;;;8.40;99.90;;;;;;4979372;28;19975;-74
2022/11/09 08:55:42;;;;;;;;;;;8.40;99.90;;;;;;5009096;28;19925;-73
2022/11/09 08:58:13;;;;;;;;;;;8.50;99.90;;;;;;5008759;28;19929;-78
2022/11/09 09:00:45;;;;;;;;;;;8.60;99.90;;;;;;4989859;28;19932;-74
2022/11/09 09:03:16;;;;;;;;;;;8.80;99.90;;;;;;5010363;28;19999;-73
2022/11/09 09:05:48;;;;;;;;;;;8.90;99.90;;;;;;5012351;28;19925;-73
2022/11/09 09:08:21;;;;;;;;;;;9.00;99.90;;;;;;4990452;28;19936;-73
2022/11/09 09:10:53;;;;;;;;;;;9.10;99.90;;;;;;4977925;28;19984;-73
2022/11/09 09:13:24;;;;;;;;;;;9.10;99.90;;;;;;4991139;28;20343;-73
2022/11/09 09:15:57;;;;;;;;;;;9.20;99.90;;;;;;4992448;28;20050;-75
2022/11/09 09:18:23;;;;;;;;;;;9.20;99.90;;;;;;4993093;28;19925;-74
2022/11/09 09:20:50;;;;;;;;;;;9.30;99.90;;;;;;4992651;28;19933;-75
2022/11/09 09:23:22;;;;;;;;;;;9.40;99.90;;;;;;4977515;28;19957;-74
2022/11/09 09:25:53;;;;;;;;;;;9.40;99.90;;;;;;4993783;28;19933;-75
2022/11/09 09:28:25;;;;;;;;;;;9.40;99.90;;;;;;4994047;28;19933;-74
2022/11/09 09:30:58;;;;;;;;;;;9.40;99.90;;;;;;5010133;28;19972;-76
2022/11/09 09:33:30;;;;;;;;;;;9.50;99.90;;;;;;4988432;28;19930;-74
2022/11/09 09:35:57;;;;;;;;;;;9.60;99.90;;;;;;4976485;28;19934;-73
2022/11/09 09:38:27;;;;;;;;;;;9.80;99.90;;;;;;4992506;28;19929;-75
2022/11/09 09:41:01;;;;;;;;;;;10.30;99.90;;;;;;4991986;28;19998;-74
2022/11/09 09:43:41;;;;;;;;;;;10.60;99.90;;;;;;4987682;28;20025;-74
2022/11/09 09:46:30;;;;;;;;;;;11.00;99.90;;;;;;5001638;28;19988;-72
2022/11/09 09:49:10;;;;;;;;;;;11.30;99.90;;;;;;5004780;28;19936;-74
2022/11/09 09:52:01;;;;;;;;;;;11.50;99.90;;;;;;4970087;28;20438;-73
2022/11/09 09:54:34;;;;;;;;;;;11.50;99.90;;;;;;4988880;28;19929;-73
2022/11/09 09:57:11;;;;;;;;;;;11.60;99.90;;;;;;4975181;28;20532;-74
2022/11/09 09:59:45;;;;;;;;;;;11.70;99.90;;;;;;4992755;28;19929;-74
2022/11/09 10:02:17;;;;;;;;;;;11.70;99.90;;;;;;4993983;28;19980;-73
2022/11/09 10:04:43;;;;;;;;;;;11.70;99.90;;;;;;5005935;28;19937;-73
2022/11/09 10:07:25;;;;;;;;;;;11.80;99.90;;;;;;4992490;28;19936;-73
2022/11/09 10:10:06;;;;;;;;;;;11.90;99.90;;;;;;4973254;28;20331;-73
2022/11/09 10:12:53;;;;;;;;;;;11.90;99.90;;;;;;5009467;28;19929;-74
2022/11/09 10:15:43;;;;;;;;;;;11.90;99.90;;;;;;4974623;28;19925;-74
2022/11/09 10:18:20;;;;;;;;;;;12.00;99.90;;;;;;4988592;28;19933;-72
2022/11/09 10:20:52;;;;;;;;;;;12.10;99.90;;;;;;4974339;28;20455;-73
2022/11/09 10:23:37;;;;;;;;;;;12.20;99.90;;;;;;4974117;28;19925;-72
2022/11/09 10:26:17;;;;;;;;;;;12.30;99.90;;;;;;5002304;28;20022;-75
2022/11/09 10:28:52;;;;;;;;;;;12.40;99.90;;;;;;5007255;28;19926;-74
2022/11/09 10:31:23;;;;;;;;;;;12.40;99.90;;;;;;4968625;28;19925;-74
2022/11/09 10:33:58;;;;;;;;;;;12.50;99.90;;;;;;4990025;28;20024;-72
2022/11/09 10:36:43;;;;;;;;;;;12.60;99.90;;;;;;4974053;28;20335;-72
2022/11/09 10:39:15;;;;;;;;;;;12.60;99.90;;;;;;5006513;28;19925;-72
2022/11/09 10:42:07;;;;;;;;;;;12.60;99.90;;;;;;4993325;28;19936;-73
2022/11/09 10:44:58;;;;;;;;;;;12.60;99.90;;;;;;4993097;28;20442;-73
2022/11/09 10:47:48;;;;;;;;;;;12.60;99.90;;;;;;4992429;28;19937;-75
2022/11/09 10:50:39;;;;;;;;;;;12.60;99.90;;;;;;5005136;28;19933;-73
2022/11/09 10:53:26;;;;;;;;;;;12.60;99.90;;;;;;5001727;28;19939;-72
2022/11/09 10:56:16;;;;;;;;;;;12.60;99.90;;;;;;4985961;28;19932;-73
2022/11/09 10:59:01;;;;;;;;;;;12.60;99.90;;;;;;5006519;28;19935;-74
2022/11/09 11:01:46;;;;;;;;;;;12.60;99.90;;;;;;4989811;28;20439;-73
2022/11/09 11:04:37;;;;;;;;;;;12.60;99.90;;;;;;4990081;28;20089;-74
2022/11/09 11:07:22;;;;;;;;;;;12.70;99.90;;;;;;4989882;28;19936;-74
2022/11/09 11:10:13;;;;;;;;;;;12.60;99.90;;;;;;4993115;28;19936;-74
2022/11/09 11:12:58;;;;;;;;;;;12.70;99.90;;;;;;5005071;28;20015;-74
2022/11/09 11:15:44;;;;;;;;;;;12.70;99.90;;;;;;4991696;28;19940;-75
2022/11/09 11:18:35;;;;;;;;;;;12.70;99.90;;;;;;4990235;28;20513;-72
2022/11/09 11:21:21;;;;;;;;;;;12.70;99.90;;;;;;5006754;28;20523;-74
2022/11/09 11:24:13;;;;;;;;;;;12.70;99.90;;;;;;5005870;28;19931;-72
2022/11/09 11:27:03;;;;;;;;;;;12.70;99.90;;;;;;4990416;28;19932;-74
2022/11/09 11:29:57;;;;;;;;;;;12.70;99.90;;;;;;4989832;28;19948;-74
2022/11/09 11:32:47;;;;;;;;;;;12.70;99.90;;;;;;4991008;28;19940;-75
2022/11/09 11:35:56;;;;;;;;;;;12.80;99.90;;;;;;4992253;28;19935;-75
2022/11/09 11:38:46;;;;;;;;;;;12.80;99.90;;;;;;4990421;28;19932;-74
2022/11/09 11:41:40;;;;;;;;;;;12.90;99.90;;;;;;4991309;28;20515;-75
2022/11/09 11:44:28;;;;;;;;;;;13.00;99.90;;;;;;4991687;28;19932;-74
2022/11/09 11:47:29;;;;;;;;;;;13.00;99.90;;;;;;4994144;28;19933;-76
2022/11/09 11:50:26;;;;;;;;;;;13.10;99.90;;;;;;4998722;28;19944;-74
2022/11/09 11:53:27;;;;;;;;;;;13.20;99.90;;;;;;5004445;28;19940;-73
2022/11/09 11:56:21;;;;;;;;;;;13.30;99.90;;;;;;4984532;28;19932;-74
2022/11/09 11:59:25;;;;;;;;;;;13.40;99.90;;;;;;5004243;28;20019;-74
2022/11/09 12:02:27;;;;;;;;;;;13.40;99.90;;;;;;4990250;28;20308;-74
2022/11/09 12:05:21;;;;;;;;;;;13.40;99.90;;;;;;4989017;28;19956;-71
2022/11/09 12:08:07;;;;;;;;;;;13.40;99.90;;;;;;4987729;28;19932;-71
2022/11/09 12:10:55;;;;;;;;;;;13.40;99.90;;;;;;5005908;28;19931;-74
2022/11/09 12:13:54;;;;;;;;;;;13.40;99.90;;;;;;4988032;28;20083;-73
2022/11/09 12:16:45;;;;;;;;;;;13.40;99.90;;;;;;4987075;28;20058;-71
2022/11/09 12:19:35;;;;;;;;;;;13.30;99.90;;;;;;4985076;28;19932;-73
2022/11/09 12:22:34;;;;;;;;;;;13.30;99.90;;;;;;5004311;28;19932;-75
2022/11/09 12:25:30;;;;;;;;;;;13.30;99.90;;;;;;5006286;28;19936;-73
2022/11/09 12:28:30;;;;;;;;;;;13.20;99.90;;;;;;4992668;28;20590;-75
2022/11/09 12:31:26;;;;;;;;;;;13.20;99.90;;;;;;5007298;28;20064;-73
2022/11/09 12:34:29;;;;;;;;;;;13.20;99.90;;;;;;4995315;28;19932;-74
2022/11/09 12:37:23;;;;;;;;;;;13.20;99.90;;;;;;5010917;28;20063;-73
2022/11/09 12:40:31;;;;;;;;;;;13.20;99.90;;;;;;4996973;28;20388;-74
2022/11/09 12:43:28;;;;;;;;;;;13.20;99.90;;;;;;4992701;28;19933;-74
2022/11/09 12:46:16;;;;;;;;;;;13.30;99.90;;;;;;4988349;28;19933;-74
2022/11/09 12:49:10;;;;;;;;;;;13.30;99.90;;;;;;5005676;28;20300;-74
2022/11/09 12:51:56;;;;;;;;;;;13.30;99.90;;;;;;5008611;28;19933;-72
2022/11/09 12:54:42;;;;;;;;;;;13.30;99.90;;;;;;5006588;28;19936;-75
2022/11/09 12:57:28;;;;;;;;;;;13.30;99.90;;;;;;5005190;28;19932;-76
2022/11/09 13:00:34;;;;;;;;;;;13.30;99.90;;;;;;5002645;28;19936;-72
2022/11/09 13:03:26;;;;;;;;;;;13.30;99.90;;;;;;4995995;28;19936;-73
2022/11/09 13:06:20;;;;;;;;;;;13.40;99.90;;;;;;4995978;28;19945;-73
2022/11/09 13:09:22;;;;;;;;;;;13.40;99.90;;;;;;5011292;28;19940;-75
2022/11/09 13:12:25;;;;;;;;;;;13.50;99.90;;;;;;5009628;28;20292;-74
2022/11/09 13:15:23;;;;;;;;;;;13.50;99.90;;;;;;4994569;28;20052;-74
2022/11/09 13:18:43;;;;;;;;;;;13.60;99.90;;;;;;4993656;28;19960;-73
2022/11/09 13:21:35;;;;;;;;;;;13.60;99.90;;;;;;5008287;28;19940;-74
2022/11/09 13:24:33;;;;;;;;;;;13.60;99.90;;;;;;5008846;28;19937;-73
2022/11/09 13:27:29;;;;;;;;;;;13.60;99.90;;;;;;4995884;28;19962;-73
2022/11/09 13:30:27;;;;;;;;;;;13.60;99.90;;;;;;4995667;28;19932;-72
2022/11/09 13:33:18;;;;;;;;;;;13.60;99.90;;;;;;4996465;28;20063;-73
2022/11/09 13:36:08;;;;;;;;;;;13.60;99.90;;;;;;5008517;28;20340;-75
2022/11/09 13:39:22;;;;;;;;;;;13.60;99.90;;;;;;4995240;28;20403;-73
2022/11/09 13:42:26;;;;;;;;;;;13.60;99.90;;;;;;5007501;28;20335;-73
2022/11/09 13:45:25;;;;;;;;;;;13.60;99.90;;;;;;5009333;28;19940;-76
2022/11/09 13:48:22;;;;;;;;;;;13.60;99.90;;;;;;4992596;28;19937;-74
2022/11/09 13:51:14;;;;;;;;;;;13.60;99.90;;;;;;5007289;28;19936;-72
2022/11/09 13:54:24;;;;;;;;;;;13.50;99.90;;;;;;5009766;28;19941;-72
2022/11/09 13:57:15;;;;;;;;;;;13.50;99.90;;;;;;4994768;28;19936;-73
2022/11/09 14:00:06;;;;;;;;;;;13.40;99.90;;;;;;5008756;28;20019;-73
2022/11/09 14:03:01;;;;;;;;;;;13.40;99.90;;;;;;4993610;28;20488;-71
2022/11/09 14:05:56;;;;;;;;;;;13.40;99.90;;;;;;5011057;28;20403;-74
2022/11/09 14:08:47;;;;;;;;;;;13.30;99.90;;;;;;5010936;28;19931;-74
2022/11/09 14:11:45;;;;;;;;;;;13.30;99.90;;;;;;4995170;28;19933;-76
2022/11/09 14:14:35;;;;;;;;;;;13.30;99.90;;;;;;5009254;28;20008;-74
2022/11/09 14:17:44;;;;;;;;;;;13.30;99.90;;;;;;5009044;28;19932;-71
2022/11/09 14:20:38;;;;;;;;;;;13.30;99.90;;;;;;5009116;28;19975;-72
2022/11/09 14:23:30;;;;;;;;;;;13.30;99.90;;;;;;5009536;28;19992;-72
2022/11/09 14:26:22;;;;;;;;;;;13.20;99.90;;;;;;4997489;28;19937;-74
2022/11/09 14:29:20;;;;;;;;;;;13.10;99.90;;;;;;4997154;28;19932;-74
2022/11/09 14:32:24;;;;;;;;;;;13.10;99.90;;;;;;4993373;28;19935;-73
2022/11/09 14:35:09;;;;;;;;;;;13.10;99.90;;;;;;4994091;28;19936;-72
2022/11/09 14:38:00;;;;;;;;;;;13.10;99.90;;;;;;4991854;28;19936;-72
2022/11/09 14:40:52;;;;;;;;;;;13.00;99.90;;;;;;4992468;28;19945;-71
2022/11/09 14:43:43;;;;;;;;;;;13.00;99.90;;;;;;4992358;28;20022;-73
2022/11/09 14:46:33;;;;;;;;;;;12.90;99.90;;;;;;4981962;28;19957;-72
2022/11/09 14:49:25;;;;;;;;;;;12.90;99.90;;;;;;4996311;28;19941;-72
2022/11/09 14:52:16;;;;;;;;;;;12.90;99.90;;;;;;4986218;28;19995;-74
2022/11/09 14:55:03;;;;;;;;;;;12.90;99.90;;;;;;4986812;28;19956;-73
2022/11/09 14:57:54;;;;;;;;;;;12.80;99.90;;;;;;5004892;28;19940;-74
2022/11/09 15:00:44;;;;;;;;;;;12.80;99.90;;;;;;4990103;28;19932;-74
2022/11/09 15:03:35;;;;;;;;;;;12.80;99.90;;;;;;4990380;28;20288;-73
2022/11/09 15:06:25;;;;;;;;;;;12.80;99.90;;;;;;5001354;28;20011;-74
2022/11/09 15:09:22;;;;;;;;;;;12.70;99.90;;;;;;5005838;28;19937;-75
2022/11/09 15:12:15;;;;;;;;;;;12.70;99.90;;;;;;5005541;28;20047;-73
2022/11/09 15:15:02;;;;;;;;;;;12.70;99.90;;;;;;4988749;28;20403;-72
2022/11/09 15:17:52;;;;;;;;;;;12.60;99.90;;;;;;4988419;28;20021;-72
2022/11/09 15:20:43;;;;;;;;;;;12.70;99.90;;;;;;4992241;28;19962;-74
2022/11/09 15:23:40;;;;;;;;;;;12.70;99.90;;;;;;4992207;28;19933;-73
2022/11/09 15:26:34;;;;;;;;;;;12.70;99.90;;;;;;5006767;28;19940;-72
2022/11/09 15:29:29;;;;;;;;;;;12.70;99.90;;;;;;5007172;28;20005;-75
2022/11/09 15:32:20;;;;;;;;;;;12.70;99.90;;;;;;4993618;28;19979;-74